sensor_id;sensor_type;location;lat;lon;timestamp;pressure;altitude;pressure_sealevel;temperature;humidity
62103;BME280;48077;48.104;11.702;2022-12-11T00:01:42;94612.44;;;-2.93;100.00
62103;BME280;48077;48.104;11.702;2022-12-11T00:04:05;94617.94;;;-2.88;100.00
62103;BME280;48077;48.104;11.702;2022-12-11T00:06:29;94615.03;;;-2.93;100.00
62103;BME280;48077;48.104;11.702;2022-12-11T00:08:53;94622.53;;;-2.98;100.00
62103;BME280;48077;48.104;11.702;2022-12-11T00:11:17;94623.53;;;-2.99;100.00
62103;BME280;48077;48.104;11.702;2022-12-11T00:13:41;94619.66;;;-3.03;100.00
62103;BME280;48077;48.104;11.702;2022-12-11T00:16:05;94624.38;;;-3.07;100.00
62103;BME280;48077;48.104;11.702;2022-12-11T00:18:29;94626.47;;;-3.02;100.00
62103;BME280;48077;48.104;11.702;2022-12-11T00:20:53;94607.16;;;-3.16;100.00
62103;BME280;48077;48.104;11.702;2022-12-11T00:23:16;94630.25;;;-3.05;100.00
62103;BME280;48077;48.104;11.702;2022-12-11T00:25:44;94640.53;;;-3.03;100.00
62103;BME280;48077;48.104;11.702;2022-12-11T00:28:07;94633.84;;;-3.06;100.00
62103;BME280;48077;48.104;11.702;2022-12-11T00:30:31;94617.06;;;-3.12;100.00
62103;BME280;48077;48.104;11.702;2022-12-11T00:32:54;94625.38;;;-3.08;100.00
62103;BME280;48077;48.104;11.702;2022-12-11T00:35:17;94620.97;;;-3.08;100.00
62103;BME280;48077;48.104;11.702;2022-12-11T00:37:41;94609.41;;;-3.13;100.00
62103;BME280;48077;48.104;11.702;2022-12-11T00:40:05;94623.91;;;-3.11;100.00
62103;BME280;48077;48.104;11.702;2022-12-11T00:42:28;94617.75;;;-3.18;100.00
62103;BME280;48077;48.104;11.702;2022-12-11T00:44:51;94616.47;;;-3.22;100.00
62103;BME280;48077;48.104;11.702;2022-12-11T00:47:16;94629.13;;;-3.11;100.00
62103;BME280;48077;48.104;11.702;2022-12-11T00:49:40;94626.88;;;-3.14;100.00
62103;BME280;48077;48.104;11.702;2022-12-11T00:52:03;94632.25;;;-3.15;100.00
62103;BME280;48077;48.104;11.702;2022-12-11T00:54:27;94623.13;;;-3.19;100.00
62103;BME280;48077;48.104;11.702;2022-12-11T00:56:50;94617.94;;;-3.28;100.00
62103;BME280;48077;48.104;11.702;2022-12-11T00:59:13;94611.91;;;-3.28;100.00
62103;BME280;48077;48.104;11.702;2022-12-11T01:01:37;94608.84;;;-3.32;100.00
62103;BME280;48077;48.104;11.702;2022-12-11T01:04:00;94627.06;;;-3.23;100.00
62103;BME280;48077;48.104;11.702;2022-12-11T01:06:25;94624.59;;;-3.25;100.00
62103;BME280;48077;48.104;11.702;2022-12-11T01:08:49;94637.34;;;-3.30;100.00
62103;BME280;48077;48.104;11.702;2022-12-11T01:11:33;94629.72;;;-3.40;100.00
62103;BME280;48077;48.104;11.702;2022-12-11T01:13:56;94643.72;;;-3.33;100.00
62103;BME280;48077;48.104;11.702;2022-12-11T01:16:20;94636.88;;;-3.34;100.00
62103;BME280;48077;48.104;11.702;2022-12-11T01:18:43;94651.22;;;-3.38;100.00
62103;BME280;48077;48.104;11.702;2022-12-11T01:21:12;94644.56;;;-3.40;100.00
62103;BME280;48077;48.104;11.702;2022-12-11T01:23:36;94646.50;;;-3.42;100.00
62103;BME280;48077;48.104;11.702;2022-12-11T01:26:11;94650.91;;;-3.35;100.00
62103;BME280;48077;48.104;11.702;2022-12-11T01:28:35;94645.34;;;-3.32;100.00
62103;BME280;48077;48.104;11.702;2022-12-11T01:30:59;94652.50;;;-3.34;100.00
62103;BME280;48077;48.104;11.702;2022-12-11T01:33:22;94643.75;;;-3.41;100.00
62103;BME280;48077;48.104;11.702;2022-12-11T01:35:45;94659.69;;;-3.36;100.00
62103;BME280;48077;48.104;11.702;2022-12-11T01:38:09;94659.03;;;-3.38;100.00
62103;BME280;48077;48.104;11.702;2022-12-11T01:40:32;94659.88;;;-3.37;100.00
62103;BME280;48077;48.104;11.702;2022-12-11T01:42:55;94658.25;;;-3.38;100.00
62103;BME280;48077;48.104;11.702;2022-12-11T01:45:43;94662.94;;;-3.34;100.00
62103;BME280;48077;48.104;11.702;2022-12-11T01:48:12;94661.50;;;-3.36;100.00
62103;BME280;48077;48.104;11.702;2022-12-11T01:50:43;94674.88;;;-3.31;100.00
62103;BME280;48077;48.104;11.702;2022-12-11T01:53:09;94668.81;;;-3.32;100.00
62103;BME280;48077;48.104;11.702;2022-12-11T01:55:36;94673.38;;;-3.34;100.00
62103;BME280;48077;48.104;11.702;2022-12-11T01:58:01;94677.63;;;-3.33;100.00
62103;BME280;48077;48.104;11.702;2022-12-11T02:00:24;94676.63;;;-3.32;100.00
62103;BME280;48077;48.104;11.702;2022-12-11T02:02:47;94666.19;;;-3.32;100.00
62103;BME280;48077;48.104;11.702;2022-12-11T02:05:11;94674.88;;;-3.31;100.00
62103;BME280;48077;48.104;11.702;2022-12-11T02:07:44;94656.28;;;-3.36;100.00
62103;BME280;48077;48.104;11.702;2022-12-11T02:10:09;94665.91;;;-3.37;100.00
62103;BME280;48077;48.104;11.702;2022-12-11T02:23:42;94658.31;;;-3.15;100.00
62103;BME280;48077;48.104;11.702;2022-12-11T02:29:02;94642.19;;;-3.19;100.00
62103;BME280;48077;48.104;11.702;2022-12-11T02:32:12;94646.09;;;-3.15;100.00
62103;BME280;48077;48.104;11.702;2022-12-11T02:36:49;94649.53;;;-3.14;100.00
62103;BME280;48077;48.104;11.702;2022-12-11T02:39:13;94652.16;;;-3.22;100.00
62103;BME280;48077;48.104;11.702;2022-12-11T02:41:41;94652.16;;;-3.22;100.00
62103;BME280;48077;48.104;11.702;2022-12-11T02:44:06;94647.13;;;-3.24;100.00
62103;BME280;48077;48.104;11.702;2022-12-11T02:46:32;94651.00;;;-3.20;100.00
62103;BME280;48077;48.104;11.702;2022-12-11T02:48:57;94652.81;;;-3.20;100.00
62103;BME280;48077;48.104;11.702;2022-12-11T02:51:24;94639.00;;;-3.29;100.00
62103;BME280;48077;48.104;11.702;2022-12-11T02:53:50;94636.56;;;-3.31;100.00
62103;BME280;48077;48.104;11.702;2022-12-11T02:56:21;94651.97;;;-3.21;100.00
62103;BME280;48077;48.104;11.702;2022-12-11T02:58:48;94651.97;;;-3.21;100.00
62103;BME280;48077;48.104;11.702;2022-12-11T03:01:14;94651.81;;;-3.19;100.00
62103;BME280;48077;48.104;11.702;2022-12-11T03:03:37;94656.22;;;-3.20;100.00
62103;BME280;48077;48.104;11.702;2022-12-11T03:06:01;94644.38;;;-3.31;100.00
62103;BME280;48077;48.104;11.702;2022-12-11T03:08:26;94659.50;;;-3.26;100.00
62103;BME280;48077;48.104;11.702;2022-12-11T03:10:49;94663.72;;;-3.25;100.00
62103;BME280;48077;48.104;11.702;2022-12-11T03:13:16;94648.28;;;-3.35;100.00
62103;BME280;48077;48.104;11.702;2022-12-11T03:16:06;94659.22;;;-3.31;100.00
62103;BME280;48077;48.104;11.702;2022-12-11T03:18:44;94652.06;;;-3.37;100.00
62103;BME280;48077;48.104;11.702;2022-12-11T03:21:12;94669.47;;;-3.30;100.00
62103;BME280;48077;48.104;11.702;2022-12-11T03:23:45;94656.94;;;-3.42;100.00
62103;BME280;48077;48.104;11.702;2022-12-11T03:26:12;94654.19;;;-3.41;100.00
62103;BME280;48077;48.104;11.702;2022-12-11T03:28:46;94660.53;;;-3.35;100.00
62103;BME280;48077;48.104;11.702;2022-12-11T03:31:41;94667.72;;;-3.37;100.00
62103;BME280;48077;48.104;11.702;2022-12-11T03:34:11;94663.47;;;-3.38;100.00
62103;BME280;48077;48.104;11.702;2022-12-11T03:36:36;94659.56;;;-3.51;100.00
62103;BME280;48077;48.104;11.702;2022-12-11T03:39:06;94678.16;;;-3.46;100.00
62103;BME280;48077;48.104;11.702;2022-12-11T03:41:32;94667.09;;;-3.56;100.00
62103;BME280;48077;48.104;11.702;2022-12-11T03:43:57;94678.16;;;-3.46;100.00
62103;BME280;48077;48.104;11.702;2022-12-11T03:46:22;94667.75;;;-3.54;100.00
62103;BME280;48077;48.104;11.702;2022-12-11T03:48:48;94672.75;;;-3.52;100.00
62103;BME280;48077;48.104;11.702;2022-12-11T03:51:12;94661.53;;;-3.53;100.00
62103;BME280;48077;48.104;11.702;2022-12-11T03:53:37;94669.84;;;-3.49;100.00
62103;BME280;48077;48.104;11.702;2022-12-11T03:56:03;94664.47;;;-3.56;100.00
62103;BME280;48077;48.104;11.702;2022-12-11T03:58:28;94665.28;;;-3.55;100.00
62103;BME280;48077;48.104;11.702;2022-12-11T04:00:51;94675.22;;;-3.51;100.00
62103;BME280;48077;48.104;11.702;2022-12-11T04:03:15;94671.78;;;-3.51;100.00
62103;BME280;48077;48.104;11.702;2022-12-11T04:05:55;94672.59;;;-3.51;100.00
62103;BME280;48077;48.104;11.702;2022-12-11T04:08:19;94661.38;;;-3.59;100.00
62103;BME280;48077;48.104;11.702;2022-12-11T04:10:43;94652.78;;;-3.68;100.00
62103;BME280;48077;48.104;11.702;2022-12-11T04:13:07;94635.50;;;-3.77;100.00
62103;BME280;48077;48.104;11.702;2022-12-11T04:15:30;94666.91;;;-3.54;100.00
62103;BME280;48077;48.104;11.702;2022-12-11T04:17:54;94677.50;;;-3.56;100.00
62103;BME280;48077;48.104;11.702;2022-12-11T04:20:35;94670.34;;;-3.54;100.00
62103;BME280;48077;48.104;11.702;2022-12-11T04:23:17;94671.31;;;-3.55;100.00
62103;BME280;48077;48.104;11.702;2022-12-11T04:26:19;94672.94;;;-3.54;100.00
62103;BME280;48077;48.104;11.702;2022-12-11T04:28:44;94674.25;;;-3.58;100.00
62103;BME280;48077;48.104;11.702;2022-12-11T04:31:12;94680.28;;;-3.57;100.00
62103;BME280;48077;48.104;11.702;2022-12-11T04:33:36;94678.63;;;-3.58;100.00
62103;BME280;48077;48.104;11.702;2022-12-11T04:36:00;94667.41;;;-3.59;100.00
62103;BME280;48077;48.104;11.702;2022-12-11T04:38:23;94674.06;;;-3.56;100.00
62103;BME280;48077;48.104;11.702;2022-12-11T04:40:47;94648.53;;;-3.77;100.00
62103;BME280;48077;48.104;11.702;2022-12-11T04:43:10;94665.66;;;-3.67;100.00
62103;BME280;48077;48.104;11.702;2022-12-11T04:45:33;94678.69;;;-3.67;100.00
62103;BME280;48077;48.104;11.702;2022-12-11T04:47:57;94674.44;;;-3.68;100.00
62103;BME280;48077;48.104;11.702;2022-12-11T04:50:21;94671.00;;;-3.68;100.00
62103;BME280;48077;48.104;11.702;2022-12-11T04:52:45;94667.59;;;-3.69;100.00
62103;BME280;48077;48.104;11.702;2022-12-11T04:55:09;94650.34;;;-3.78;100.00
62103;BME280;48077;48.104;11.702;2022-12-11T04:57:33;94665.97;;;-3.70;100.00
62103;BME280;48077;48.104;11.702;2022-12-11T04:59:56;94663.22;;;-3.76;100.00
62103;BME280;48077;48.104;11.702;2022-12-11T05:02:20;94666.75;;;-3.69;100.00
62103;BME280;48077;48.104;11.702;2022-12-11T05:04:43;94648.72;;;-3.79;100.00
62103;BME280;48077;48.104;11.702;2022-12-11T05:07:06;94656.03;;;-3.74;100.00
62103;BME280;48077;48.104;11.702;2022-12-11T05:09:31;94665.31;;;-3.63;100.00
62103;BME280;48077;48.104;11.702;2022-12-11T05:11:55;94666.75;;;-3.61;100.00
62103;BME280;48077;48.104;11.702;2022-12-11T05:14:18;94660.75;;;-3.61;100.00
62103;BME280;48077;48.104;11.702;2022-12-11T05:16:42;94648.72;;;-3.71;100.00
62103;BME280;48077;48.104;11.702;2022-12-11T05:19:06;94651.31;;;-3.62;100.00
62103;BME280;48077;48.104;11.702;2022-12-11T05:21:29;94653.91;;;-3.62;100.00
62103;BME280;48077;48.104;11.702;2022-12-11T05:23:52;94649.50;;;-3.62;100.00
62103;BME280;48077;48.104;11.702;2022-12-11T05:26:18;94667.56;;;-3.52;100.00
62103;BME280;48077;48.104;11.702;2022-12-11T05:28:42;94668.38;;;-3.52;100.00
62103;BME280;48077;48.104;11.702;2022-12-11T05:31:19;94666.59;;;-3.51;100.00
62103;BME280;48077;48.104;11.702;2022-12-11T05:33:44;94661.22;;;-3.50;100.00
62103;BME280;48077;48.104;11.702;2022-12-11T05:36:13;94644.59;;;-3.57;100.00
62103;BME280;48077;48.104;11.702;2022-12-11T05:38:37;94643.63;;;-3.56;100.00
62103;BME280;48077;48.104;11.702;2022-12-11T05:41:04;94661.03;;;-3.48;100.00
62103;BME280;48077;48.104;11.702;2022-12-11T05:43:30;94665.91;;;-3.45;100.00
62103;BME280;48077;48.104;11.702;2022-12-11T05:45:55;94662.16;;;-3.42;100.00
62103;BME280;48077;48.104;11.702;2022-12-11T05:48:18;94661.19;;;-3.41;100.00
62103;BME280;48077;48.104;11.702;2022-12-11T05:50:42;94663.31;;;-3.45;100.00
62103;BME280;48077;48.104;11.702;2022-12-11T05:53:05;94658.59;;;-3.50;100.00
62103;BME280;48077;48.104;11.702;2022-12-11T05:55:28;94649.16;;;-3.59;100.00
62103;BME280;48077;48.104;11.702;2022-12-11T05:57:52;94663.19;;;-3.60;100.00
62103;BME280;48077;48.104;11.702;2022-12-11T06:00:15;94667.09;;;-3.56;100.00
62103;BME280;48077;48.104;11.702;2022-12-11T06:02:39;94658.13;;;-3.61;100.00
62103;BME280;48077;48.104;11.702;2022-12-11T06:05:02;94645.09;;;-3.61;100.00
62103;BME280;48077;48.104;11.702;2022-12-11T06:07:26;94634.69;;;-3.70;100.00
62103;BME280;48077;48.104;11.702;2022-12-11T06:09:49;94658.28;;;-3.55;100.00
62103;BME280;48077;48.104;11.702;2022-12-11T06:12:12;94654.88;;;-3.55;100.00
62103;BME280;48077;48.104;11.702;2022-12-11T06:14:36;94654.06;;;-3.56;100.00
62103;BME280;48077;48.104;11.702;2022-12-11T06:16:59;94650.81;;;-3.58;100.00
62103;BME280;48077;48.104;11.702;2022-12-11T06:19:23;94642.16;;;-3.58;100.00
62103;BME280;48077;48.104;11.702;2022-12-11T06:21:47;94639.88;;;-3.61;100.00
62103;BME280;48077;48.104;11.702;2022-12-11T06:24:11;94633.72;;;-3.69;100.00
62103;BME280;48077;48.104;11.702;2022-12-11T06:26:34;94632.06;;;-3.70;100.00
62103;BME280;48077;48.104;11.702;2022-12-11T06:28:58;94629.63;;;-3.71;100.00
62103;BME280;48077;48.104;11.702;2022-12-11T06:31:22;94641.53;;;-3.69;100.00
62103;BME280;48077;48.104;11.702;2022-12-11T06:33:46;94643.00;;;-3.66;100.00
62103;BME280;48077;48.104;11.702;2022-12-11T06:36:12;94646.25;;;-3.64;100.00
62103;BME280;48077;48.104;11.702;2022-12-11T06:38:37;94651.97;;;-3.69;100.00
62103;BME280;48077;48.104;11.702;2022-12-11T06:41:02;94646.91;;;-3.70;100.00
62103;BME280;48077;48.104;11.702;2022-12-11T06:43:30;94648.06;;;-3.73;100.00
62103;BME280;48077;48.104;11.702;2022-12-11T06:45:53;94653.44;;;-3.74;100.00
62103;BME280;48077;48.104;11.702;2022-12-11T06:48:18;94645.28;;;-3.79;100.00
62103;BME280;48077;48.104;11.702;2022-12-11T06:50:41;94651.97;;;-3.77;100.00
62103;BME280;48077;48.104;11.702;2022-12-11T06:53:05;94638.97;;;-3.85;100.00
62103;BME280;48077;48.104;11.702;2022-12-11T06:55:28;94652.13;;;-3.78;100.00
62103;BME280;48077;48.104;11.702;2022-12-11T06:57:51;94640.72;;;-3.86;100.00
62103;BME280;48077;48.104;11.702;2022-12-11T07:00:15;94653.59;;;-3.84;100.00
62103;BME280;48077;48.104;11.702;2022-12-11T07:02:38;94641.38;;;-3.92;100.00
62103;BME280;48077;48.104;11.702;2022-12-11T07:05:03;94657.50;;;-3.88;100.00
62103;BME280;48077;48.104;11.702;2022-12-11T07:07:26;94648.88;;;-3.97;100.00
62103;BME280;48077;48.104;11.702;2022-12-11T07:09:50;94653.78;;;-3.94;100.00
62103;BME280;48077;48.104;11.702;2022-12-11T07:12:15;94649.38;;;-4.01;100.00
62103;BME280;48077;48.104;11.702;2022-12-11T07:14:39;94638.47;;;-4.05;100.00
62103;BME280;48077;48.104;11.702;2022-12-11T07:17:02;94663.06;;;-3.91;100.00
62103;BME280;48077;48.104;11.702;2022-12-11T07:19:26;94678.84;;;-3.93;100.00
62103;BME280;48077;48.104;11.702;2022-12-11T07:21:49;94656.69;;;-4.13;100.00
62103;BME280;48077;48.104;11.702;2022-12-11T07:24:13;94679.84;;;-3.94;100.00
62103;BME280;48077;48.104;11.702;2022-12-11T07:26:36;94676.56;;;-3.88;100.00
62103;BME280;48077;48.104;11.702;2022-12-11T07:29:00;94672.97;;;-3.87;100.00
62103;BME280;48077;48.104;11.702;2022-12-11T07:31:25;94680.94;;;-3.80;100.00
62103;BME280;48077;48.104;11.702;2022-12-11T07:33:53;94677.53;;;-3.80;100.00
62103;BME280;48077;48.104;11.702;2022-12-11T07:36:17;94681.75;;;-3.79;100.00
62103;BME280;48077;48.104;11.702;2022-12-11T07:38:40;94684.06;;;-3.76;100.00
62103;BME280;48077;48.104;11.702;2022-12-11T07:41:06;94681.28;;;-3.75;100.00
62103;BME280;48077;48.104;11.702;2022-12-11T07:43:30;94681.94;;;-3.73;100.00
62103;BME280;48077;48.104;11.702;2022-12-11T07:45:54;94675.25;;;-3.75;100.00
62103;BME280;48077;48.104;11.702;2022-12-11T07:48:17;94684.19;;;-3.70;100.00
62103;BME280;48077;48.104;11.702;2022-12-11T07:50:41;94678.84;;;-3.68;100.00
62103;BME280;48077;48.104;11.702;2022-12-11T07:53:04;94673.94;;;-3.71;100.00
62103;BME280;48077;48.104;11.702;2022-12-11T07:55:27;94673.47;;;-3.67;100.00
62103;BME280;48077;48.104;11.702;2022-12-11T07:57:51;94685.19;;;-3.62;100.00
62103;BME280;48077;48.104;11.702;2022-12-11T08:00:15;94680.44;;;-3.59;100.00
62103;BME280;48077;48.104;11.702;2022-12-11T08:02:39;94670.50;;;-3.63;100.00
62103;BME280;48077;48.104;11.702;2022-12-11T08:05:03;94683.38;;;-3.54;100.00
62103;BME280;48077;48.104;11.702;2022-12-11T08:07:26;94685.97;;;-3.54;100.00
62103;BME280;48077;48.104;11.702;2022-12-11T08:09:49;94682.53;;;-3.54;100.00
62103;BME280;48077;48.104;11.702;2022-12-11T08:12:13;94685.13;;;-3.46;100.00
62103;BME280;48077;48.104;11.702;2022-12-11T08:14:36;94689.03;;;-3.42;100.00
62103;BME280;48077;48.104;11.702;2022-12-11T08:16:59;94687.72;;;-3.38;100.00
62103;BME280;48077;48.104;11.702;2022-12-11T08:19:24;94692.28;;;-3.40;100.00
62103;BME280;48077;48.104;11.702;2022-12-11T08:21:47;94684.66;;;-3.41;100.00
62103;BME280;48077;48.104;11.702;2022-12-11T08:24:11;94677.31;;;-3.46;100.00
62103;BME280;48077;48.104;11.702;2022-12-11T08:26:34;94669.84;;;-3.49;100.00
62103;BME280;48077;48.104;11.702;2022-12-11T08:28:59;94694.75;;;-3.38;100.00
62103;BME280;48077;48.104;11.702;2022-12-11T08:31:23;94685.63;;;-3.42;100.00
62103;BME280;48077;48.104;11.702;2022-12-11T08:33:47;94687.09;;;-3.40;100.00
62103;BME280;48077;48.104;11.702;2022-12-11T08:36:13;94685.63;;;-3.42;100.00
62103;BME280;48077;48.104;11.702;2022-12-11T08:38:37;94690.81;;;-3.34;100.00
62103;BME280;48077;48.104;11.702;2022-12-11T08:41:12;94691.16;;;-3.29;100.00
62103;BME280;48077;48.104;11.702;2022-12-11T08:43:36;94690.00;;;-3.27;100.00
62103;BME280;48077;48.104;11.702;2022-12-11T08:46:00;94694.88;;;-3.23;100.00
62103;BME280;48077;48.104;11.702;2022-12-11T08:48:23;94690.97;;;-3.28;100.00
62103;BME280;48077;48.104;11.702;2022-12-11T08:50:46;94694.38;;;-3.19;100.00
62103;BME280;48077;48.104;11.702;2022-12-11T08:53:10;94695.19;;;-3.10;100.00
62103;BME280;48077;48.104;11.702;2022-12-11T08:55:34;94686.84;;;-3.06;100.00
62103;BME280;48077;48.104;11.702;2022-12-11T08:57:57;94686.84;;;-3.06;100.00
62103;BME280;48077;48.104;11.702;2022-12-11T09:00:21;94696.44;;;-2.98;100.00
62103;BME280;48077;48.104;11.702;2022-12-11T09:02:44;94698.22;;;-2.98;100.00
62103;BME280;48077;48.104;11.702;2022-12-11T09:05:08;94697.56;;;-3.00;100.00
62103;BME280;48077;48.104;11.702;2022-12-11T09:07:35;94702.50;;;-3.06;100.00
62103;BME280;48077;48.104;11.702;2022-12-11T09:09:59;94692.56;;;-3.10;100.00
62103;BME280;48077;48.104;11.702;2022-12-11T09:12:23;94688.31;;;-3.11;100.00
62103;BME280;48077;48.104;11.702;2022-12-11T09:14:46;94684.94;;;-3.20;100.00
62103;BME280;48077;48.104;11.702;2022-12-11T09:17:09;94701.09;;;-3.24;100.00
62103;BME280;48077;48.104;11.702;2022-12-11T09:19:33;94689.69;;;-3.40;100.00
62103;BME280;48077;48.104;11.702;2022-12-11T09:21:56;94699.59;;;-3.27;100.00
62103;BME280;48077;48.104;11.702;2022-12-11T09:24:19;94690.81;;;-3.26;99.85
62103;BME280;48077;48.104;11.702;2022-12-11T09:26:43;94693.56;;;-3.19;99.24
62103;BME280;48077;48.104;11.702;2022-12-11T09:29:09;94678.88;;;-3.12;99.03
62103;BME280;48077;48.104;11.702;2022-12-11T09:31:35;94690.63;;;-3.16;97.26
62103;BME280;48077;48.104;11.702;2022-12-11T09:34:01;94679.19;;;-3.15;98.13
62103;BME280;48077;48.104;11.702;2022-12-11T09:36:24;94688.97;;;-3.17;98.01
62103;BME280;48077;48.104;11.702;2022-12-11T09:38:48;94688.81;;;-3.16;99.13
62103;BME280;48077;48.104;11.702;2022-12-11T09:41:28;94687.16;;;-3.09;99.27
62103;BME280;48077;48.104;11.702;2022-12-11T09:46:33;94676.75;;;-3.17;97.11
62103;BME280;48077;48.104;11.702;2022-12-11T09:49:00;94677.56;;;-3.08;97.82
62103;BME280;48077;48.104;11.702;2022-12-11T09:51:42;94674.47;;;-3.12;97.14
62103;BME280;48077;48.104;11.702;2022-12-11T09:54:10;94679.81;;;-3.05;97.02
62103;BME280;48077;48.104;11.702;2022-12-11T09:56:41;94673.31;;;-3.09;97.48
62103;BME280;48077;48.104;11.702;2022-12-11T09:59:27;94680.81;;;-3.06;95.33
62103;BME280;48077;48.104;11.702;2022-12-11T10:14:53;94661.44;;;-3.12;95.57
62103;BME280;48077;48.104;11.702;2022-12-11T10:17:28;94665.66;;;-3.19;92.98
62103;BME280;48077;48.104;11.702;2022-12-11T10:19:54;94656.56;;;-3.23;93.75
62103;BME280;48077;48.104;11.702;2022-12-11T10:22:29;94654.66;;;-3.37;92.65
62103;BME280;48077;48.104;11.702;2022-12-11T10:24:59;94642.75;;;-3.40;93.44
62103;BME280;48077;48.104;11.702;2022-12-11T10:27:31;94653.63;;;-3.20;94.07
62103;BME280;48077;48.104;11.702;2022-12-11T10:30:12;94652.50;;;-3.26;93.53
62103;BME280;48077;48.104;11.702;2022-12-11T10:35:26;94655.44;;;-3.29;93.82
62103;BME280;48077;48.104;11.702;2022-12-11T10:37:55;94654.28;;;-3.26;93.92
62103;BME280;48077;48.104;11.702;2022-12-11T10:40:20;94651.19;;;-3.21;94.69
62103;BME280;48077;48.104;11.702;2022-12-11T10:42:53;94646.59;;;-3.19;92.80
62103;BME280;48077;48.104;11.702;2022-12-11T10:45:17;94639.75;;;-3.12;92.78
62103;BME280;48077;48.104;11.702;2022-12-11T10:47:41;94632.38;;;-3.09;93.12
62103;BME280;48077;48.104;11.702;2022-12-11T10:50:04;94600.56;;;-3.35;92.33
62103;BME280;48077;48.104;11.702;2022-12-11T10:52:36;94633.13;;;-3.31;90.14
62103;BME280;48077;48.104;11.702;2022-12-11T10:57:36;94631.34;;;-3.31;91.00
62103;BME280;48077;48.104;11.702;2022-12-11T11:00:04;94629.81;;;-3.25;91.94
62103;BME280;48077;48.104;11.702;2022-12-11T11:02:31;94629.34;;;-3.20;92.55
62103;BME280;48077;48.104;11.702;2022-12-11T11:04:58;94618.94;;;-3.29;91.74
62103;BME280;48077;48.104;11.702;2022-12-11T11:07:27;94625.91;;;-3.21;92.11
62103;BME280;48077;48.104;11.702;2022-12-11T11:10:05;94620.03;;;-3.23;90.47
62103;BME280;48077;48.104;11.702;2022-12-11T11:12:29;94616.13;;;-3.19;90.77
62103;BME280;48077;48.104;11.702;2022-12-11T11:15:06;94611.22;;;-3.14;91.17
62103;BME280;48077;48.104;11.702;2022-12-11T11:17:46;94611.09;;;-3.20;89.68
62103;BME280;48077;48.104;11.702;2022-12-11T11:20:17;94602.91;;;-3.17;90.52
62103;BME280;48077;48.104;11.702;2022-12-11T11:22:44;94600.97;;;-3.23;90.27
62103;BME280;48077;48.104;11.702;2022-12-11T11:25:18;94590.56;;;-3.32;90.26
62103;BME280;48077;48.104;11.702;2022-12-11T11:27:44;94580.16;;;-3.40;90.40
62103;BME280;48077;48.104;11.702;2022-12-11T11:30:23;94591.69;;;-3.26;90.81
62103;BME280;48077;48.104;11.702;2022-12-11T11:32:50;94586.44;;;-3.18;92.07
62103;BME280;48077;48.104;11.702;2022-12-11T11:35:17;94570.84;;;-3.26;90.11
62103;BME280;48077;48.104;11.702;2022-12-11T11:37:45;94580.88;;;-3.15;91.94
62103;BME280;48077;48.104;11.702;2022-12-11T11:40:21;94578.75;;;-3.11;92.37
62103;BME280;48077;48.104;11.702;2022-12-11T11:53:45;94565.34;;;-3.31;92.96
62103;BME280;48077;48.104;11.702;2022-12-11T11:58:58;94561.25;;;-3.34;92.17
62103;BME280;48077;48.104;11.702;2022-12-11T12:01:24;94566.00;;;-3.37;91.80
62103;BME280;48077;48.104;11.702;2022-12-11T12:03:49;94567.16;;;-3.48;91.53
62103;BME280;48077;48.104;11.702;2022-12-11T12:06:28;94561.19;;;-3.57;90.70
62103;BME280;48077;48.104;11.702;2022-12-11T12:11:36;94559.44;;;-3.64;91.00
62103;BME280;48077;48.104;11.702;2022-12-11T12:14:20;94570.78;;;-3.57;92.22
62103;BME280;48077;48.104;11.702;2022-12-11T12:33:33;94565.97;;;-3.29;90.98
62103;BME280;48077;48.104;11.702;2022-12-11T12:38:57;94566.66;;;-3.35;87.63
62103;BME280;48077;48.104;11.702;2022-12-11T12:43:58;94570.06;;;-3.35;88.78
62103;BME280;48077;48.104;11.702;2022-12-11T12:49:16;94560.19;;;-3.16;88.51
62103;BME280;48077;48.104;11.702;2022-12-11T12:51:42;94562.13;;;-3.10;88.08
62103;BME280;48077;48.104;11.702;2022-12-11T12:54:09;94554.75;;;-3.07;88.73
62103;BME280;48077;48.104;11.702;2022-12-11T12:56:34;94554.25;;;-3.02;87.89
62103;BME280;48077;48.104;11.702;2022-12-11T12:58:58;94559.00;;;-3.06;87.82
62103;BME280;48077;48.104;11.702;2022-12-11T13:01:24;94552.81;;;-3.13;88.89
62103;BME280;48077;48.104;11.702;2022-12-11T13:03:59;94560.66;;;-3.13;88.71
62103;BME280;48077;48.104;11.702;2022-12-11T13:06:36;94553.25;;;-3.01;89.34
62103;BME280;48077;48.104;11.702;2022-12-11T13:09:25;94556.63;;;-2.92;89.02
62103;BME280;48077;48.104;11.702;2022-12-11T13:11:52;94551.25;;;-2.91;89.73
62103;BME280;48077;48.104;11.702;2022-12-11T13:16:42;94550.88;;;-2.88;89.60
62103;BME280;48077;48.104;11.702;2022-12-11T13:19:35;94549.97;;;-2.95;89.47
62103;BME280;48077;48.104;11.702;2022-12-11T13:24:58;94549.25;;;-3.12;88.55
62103;BME280;48077;48.104;11.702;2022-12-11T13:27:39;94550.06;;;-3.11;89.25
62103;BME280;48077;48.104;11.702;2022-12-11T13:30:24;94547.66;;;-3.21;88.85
62103;BME280;48077;48.104;11.702;2022-12-11T13:32:57;94546.25;;;-3.32;89.48
62103;BME280;48077;48.104;11.702;2022-12-11T13:35:22;94560.41;;;-3.26;89.17
62103;BME280;48077;48.104;11.702;2022-12-11T13:37:48;94529.34;;;-3.44;89.12
62103;BME280;48077;48.104;11.702;2022-12-11T13:40:32;94561.84;;;-3.23;89.96
62103;BME280;48077;48.104;11.702;2022-12-11T13:43:01;94556.31;;;-3.20;89.85
62103;BME280;48077;48.104;11.702;2022-12-11T13:45:29;94547.19;;;-3.24;90.01
62103;BME280;48077;48.104;11.702;2022-12-11T13:47:56;94559.72;;;-3.20;90.46
62103;BME280;48077;48.104;11.702;2022-12-11T13:50:25;94559.25;;;-3.23;89.71
62103;BME280;48077;48.104;11.702;2022-12-11T13:52:54;94546.25;;;-3.32;90.59
62103;BME280;48077;48.104;11.702;2022-12-11T13:55:24;94561.22;;;-3.26;90.61
62103;BME280;48077;48.104;11.702;2022-12-11T13:57:47;94554.91;;;-3.31;90.39
62103;BME280;48077;48.104;11.702;2022-12-11T14:00:27;94556.88;;;-3.33;89.84
62103;BME280;48077;48.104;11.702;2022-12-11T14:02:53;94547.59;;;-3.44;90.13
62103;BME280;48077;48.104;11.702;2022-12-11T14:05:19;94549.91;;;-3.49;89.48